sensor_id;sensor_type;location;lat;lon;timestamp;pressure;altitude;pressure_sealevel;temperature;humidity
21433;BME280;18592;49.708;10.900;2023-09-08T00:02:06;98943.78;;;22.66;41.71
21433;BME280;18592;49.708;10.900;2023-09-08T00:04:07;98946.38;;;22.63;41.53
21433;BME280;18592;49.708;10.900;2023-09-08T00:06:07;98945.84;;;22.61;41.80
21433;BME280;18592;49.708;10.900;2023-09-08T00:08:08;98944.81;;;22.57;41.65
21433;BME280;18592;49.708;10.900;2023-09-08T00:10:08;98938.78;;;22.55;42.05
21433;BME280;18592;49.708;10.900;2023-09-08T00:12:09;98943.34;;;22.51;41.53
21433;BME280;18592;49.708;10.900;2023-09-08T00:14:09;98936.47;;;22.48;41.85
21433;BME280;18592;49.708;10.900;2023-09-08T00:16:09;98937.09;;;22.45;41.83
21433;BME280;18592;49.708;10.900;2023-09-08T00:18:10;98944.13;;;22.43;41.93
21433;BME280;18592;49.708;10.900;2023-09-08T00:20:12;98943.13;;;22.39;41.75
21433;BME280;18592;49.708;10.900;2023-09-08T00:22:26;98943.75;;;22.36;42.12
21433;BME280;18592;49.708;10.900;2023-09-08T00:24:27;98942.72;;;22.32;41.86
21433;BME280;18592;49.708;10.900;2023-09-08T00:26:27;98945.00;;;22.30;41.76
21433;BME280;18592;49.708;10.900;2023-09-08T00:28:27;98942.88;;;22.27;42.34
21433;BME280;18592;49.708;10.900;2023-09-08T00:30:28;98936.81;;;22.25;42.37
21433;BME280;18592;49.708;10.900;2023-09-08T00:32:28;98943.00;;;22.22;42.13
21433;BME280;18592;49.708;10.900;2023-09-08T00:34:29;98944.16;;;22.21;42.30
21433;BME280;18592;49.708;10.900;2023-09-08T00:36:29;98947.56;;;22.18;42.36
21433;BME280;18592;49.708;10.900;2023-09-08T00:38:29;98948.19;;;22.14;42.57
21433;BME280;18592;49.708;10.900;2023-09-08T00:40:30;98947.69;;;22.12;42.47
21433;BME280;18592;49.708;10.900;2023-09-08T00:42:30;98944.41;;;22.10;42.50
21433;BME280;18592;49.708;10.900;2023-09-08T00:44:31;98948.66;;;22.08;42.51
21433;BME280;18592;49.708;10.900;2023-09-08T00:46:31;98942.91;;;22.04;42.72
21433;BME280;18592;49.708;10.900;2023-09-08T00:48:32;98943.53;;;22.01;42.70
21433;BME280;18592;49.708;10.900;2023-09-08T00:50:32;98944.97;;;21.99;42.50
21433;BME280;18592;49.708;10.900;2023-09-08T00:52:33;98939.75;;;21.97;42.66
21433;BME280;18592;49.708;10.900;2023-09-08T00:54:34;98934.81;;;21.94;42.51
21433;BME280;18592;49.708;10.900;2023-09-08T00:56:37;98941.00;;;21.91;42.92
21433;BME280;18592;49.708;10.900;2023-09-08T00:58:45;98945.22;;;21.89;42.60
21433;BME280;18592;49.708;10.900;2023-09-08T01:00:46;98942.78;;;21.87;43.09
21433;BME280;18592;49.708;10.900;2023-09-08T01:02:46;98939.50;;;21.85;42.71
21433;BME280;18592;49.708;10.900;2023-09-08T01:04:47;98948.09;;;21.84;43.00
21433;BME280;18592;49.708;10.900;2023-09-08T01:06:54;98947.09;;;21.80;42.89
21433;BME280;18592;49.708;10.900;2023-09-08T01:08:55;98947.41;;;21.78;43.02
21433;BME280;18592;49.708;10.900;2023-09-08T01:11:05;98945.28;;;21.75;42.93
21433;BME280;18592;49.708;10.900;2023-09-08T01:13:05;98950.28;;;21.73;42.98
21433;BME280;18592;49.708;10.900;2023-09-08T01:15:06;98953.72;;;21.70;42.93
21433;BME280;18592;49.708;10.900;2023-09-08T01:17:07;98948.78;;;21.67;42.83
21433;BME280;18592;49.708;10.900;2023-09-08T01:19:12;98941.91;;;21.65;43.30
21433;BME280;18592;49.708;10.900;2023-09-08T01:24:05;98943.28;;;21.53;43.12
21433;BME280;18592;49.708;10.900;2023-09-08T01:26:17;98951.94;;;21.52;43.41
21433;BME280;18592;49.708;10.900;2023-09-08T01:28:19;98940.63;;;21.48;43.23
21433;BME280;18592;49.708;10.900;2023-09-08T01:30:21;98949.28;;;21.47;43.26
21433;BME280;18592;49.708;10.900;2023-09-08T01:32:25;98949.06;;;21.43;43.31
21433;BME280;18592;49.708;10.900;2023-09-08T01:34:26;98955.22;;;21.40;43.35
21433;BME280;18592;49.708;10.900;2023-09-08T01:36:26;98955.88;;;21.37;43.06
21433;BME280;18592;49.708;10.900;2023-09-08T01:38:27;98945.41;;;21.34;43.35
21433;BME280;18592;49.708;10.900;2023-09-08T01:40:27;98949.63;;;21.32;43.46
21433;BME280;18592;49.708;10.900;2023-09-08T01:42:27;98939.47;;;21.27;43.25
21433;BME280;18592;49.708;10.900;2023-09-08T01:44:28;98939.25;;;21.24;43.39
21433;BME280;18592;49.708;10.900;2023-09-08T01:46:29;98939.88;;;21.21;43.51
21433;BME280;18592;49.708;10.900;2023-09-08T01:48:29;98942.97;;;21.19;43.49
21433;BME280;18592;49.708;10.900;2023-09-08T01:50:30;98943.59;;;21.16;43.55
21433;BME280;18592;49.708;10.900;2023-09-08T01:52:30;98932.28;;;21.13;43.30
21433;BME280;18592;49.708;10.900;2023-09-08T01:54:30;98932.59;;;21.11;43.68
21433;BME280;18592;49.708;10.900;2023-09-08T01:56:31;98935.16;;;21.08;43.50
21433;BME280;18592;49.708;10.900;2023-09-08T01:58:31;98935.78;;;21.05;43.71
21433;BME280;18592;49.708;10.900;2023-09-08T02:00:51;98930.34;;;21.00;43.71
21433;BME280;18592;49.708;10.900;2023-09-08T02:02:51;98938.44;;;20.96;43.51
21433;BME280;18592;49.708;10.900;2023-09-08T02:04:52;98933.50;;;20.93;43.34
21433;BME280;18592;49.708;10.900;2023-09-08T02:06:55;98934.13;;;20.90;43.61
21433;BME280;18592;49.708;10.900;2023-09-08T02:08:59;98936.72;;;20.86;43.59
21433;BME280;18592;49.708;10.900;2023-09-08T02:11:02;98930.66;;;20.84;43.55
21433;BME280;18592;49.708;10.900;2023-09-08T02:13:03;98942.34;;;20.81;43.55
21433;BME280;18592;49.708;10.900;2023-09-08T02:15:05;98937.44;;;20.78;43.81
21433;BME280;18592;49.708;10.900;2023-09-08T02:17:05;98939.19;;;20.74;43.78
21433;BME280;18592;49.708;10.900;2023-09-08T02:19:06;98937.84;;;20.72;43.53
21433;BME280;18592;49.708;10.900;2023-09-08T02:21:18;98940.91;;;20.70;43.74
21433;BME280;18592;49.708;10.900;2023-09-08T02:23:18;98943.50;;;20.67;43.86
21433;BME280;18592;49.708;10.900;2023-09-08T02:25:19;98947.69;;;20.64;43.94
21433;BME280;18592;49.708;10.900;2023-09-08T02:27:19;98947.47;;;20.61;43.95
21433;BME280;18592;49.708;10.900;2023-09-08T02:29:23;98940.28;;;20.60;43.63
21433;BME280;18592;49.708;10.900;2023-09-08T02:31:23;98940.38;;;20.55;43.77
21433;BME280;18592;49.708;10.900;2023-09-08T02:33:24;98943.47;;;20.53;44.12
21433;BME280;18592;49.708;10.900;2023-09-08T02:35:25;98939.38;;;20.51;43.70
21433;BME280;18592;49.708;10.900;2023-09-08T02:37:27;98947.16;;;20.49;44.03
21433;BME280;18592;49.708;10.900;2023-09-08T02:39:32;98940.28;;;20.46;43.94
21433;BME280;18592;49.708;10.900;2023-09-08T02:41:33;98942.53;;;20.44;44.17
21433;BME280;18592;49.708;10.900;2023-09-08T02:43:43;98937.63;;;20.41;44.55
21433;BME280;18592;49.708;10.900;2023-09-08T02:45:43;98941.50;;;20.40;44.48
21433;BME280;18592;49.708;10.900;2023-09-08T02:47:49;98939.66;;;20.36;44.70
21433;BME280;18592;49.708;10.900;2023-09-08T02:49:50;98943.53;;;20.35;44.32
21433;BME280;18592;49.708;10.900;2023-09-08T02:51:51;98932.28;;;20.31;44.25
21433;BME280;18592;49.708;10.900;2023-09-08T02:53:51;98944.47;;;20.30;44.29
21433;BME280;18592;49.708;10.900;2023-09-08T02:55:51;98938.69;;;20.26;44.52
21433;BME280;18592;49.708;10.900;2023-09-08T02:57:52;98941.78;;;20.25;44.67
21433;BME280;18592;49.708;10.900;2023-09-08T02:59:52;98947.06;;;20.21;44.50
21433;BME280;18592;49.708;10.900;2023-09-08T03:01:53;98935.47;;;20.19;44.35
21433;BME280;18592;49.708;10.900;2023-09-08T03:03:53;98949.94;;;20.16;44.64
21433;BME280;18592;49.708;10.900;2023-09-08T03:05:54;98951.34;;;20.14;45.40
21433;BME280;18592;49.708;10.900;2023-09-08T03:07:58;98941.19;;;20.09;44.77
21433;BME280;18592;49.708;10.900;2023-09-08T03:09:59;98940.38;;;20.09;45.13
21433;BME280;18592;49.708;10.900;2023-09-08T03:12:03;98938.53;;;20.04;44.74
21433;BME280;18592;49.708;10.900;2023-09-08T03:14:18;98936.06;;;20.03;44.58
21433;BME280;18592;49.708;10.900;2023-09-08T03:16:19;98931.13;;;20.00;45.14
21433;BME280;18592;49.708;10.900;2023-09-08T03:18:20;98932.88;;;19.96;45.12
21433;BME280;18592;49.708;10.900;2023-09-08T03:20:20;98932.66;;;19.92;44.77
21433;BME280;18592;49.708;10.900;2023-09-08T03:22:21;98932.97;;;19.91;45.05
21433;BME280;18592;49.708;10.900;2023-09-08T03:24:21;98935.19;;;19.89;45.15
21433;BME280;18592;49.708;10.900;2023-09-08T03:26:21;98927.50;;;19.86;45.08
21433;BME280;18592;49.708;10.900;2023-09-08T03:28:22;98929.22;;;19.82;45.04
21433;BME280;18592;49.708;10.900;2023-09-08T03:30:22;98935.06;;;19.80;45.49
21433;BME280;18592;49.708;10.900;2023-09-08T03:32:22;98938.44;;;19.77;45.12
21433;BME280;18592;49.708;10.900;2023-09-08T03:34:23;98937.94;;;19.75;44.98
21433;BME280;18592;49.708;10.900;2023-09-08T03:36:23;98941.28;;;19.72;45.26
21433;BME280;18592;49.708;10.900;2023-09-08T03:38:25;98933.31;;;19.71;45.13
21433;BME280;18592;49.708;10.900;2023-09-08T03:40:26;98939.44;;;19.68;45.57
21433;BME280;18592;49.708;10.900;2023-09-08T03:42:28;98937.25;;;19.64;45.47
21433;BME280;18592;49.708;10.900;2023-09-08T03:44:28;98931.22;;;19.62;45.16
21433;BME280;18592;49.708;10.900;2023-09-08T03:46:29;98933.47;;;19.60;45.71
21433;BME280;18592;49.708;10.900;2023-09-08T03:48:34;98930.16;;;19.58;45.71
21433;BME280;18592;49.708;10.900;2023-09-08T03:50:37;98937.94;;;19.56;45.51
21433;BME280;18592;49.708;10.900;2023-09-08T03:52:41;98940.50;;;19.53;45.57
21433;BME280;18592;49.708;10.900;2023-09-08T03:54:42;98936.91;;;19.52;45.53
21433;BME280;18592;49.708;10.900;2023-09-08T03:56:43;98935.03;;;19.48;45.91
21433;BME280;18592;49.708;10.900;2023-09-08T03:58:44;98937.81;;;19.48;45.43
21433;BME280;18592;49.708;10.900;2023-09-08T04:00:44;98933.69;;;19.45;45.18
21433;BME280;18592;49.708;10.900;2023-09-08T04:02:45;98928.44;;;19.44;45.15
21433;BME280;18592;49.708;10.900;2023-09-08T04:04:46;98939.00;;;19.42;45.83
21433;BME280;18592;49.708;10.900;2023-09-08T04:06:46;98937.66;;;19.39;45.69
21433;BME280;18592;49.708;10.900;2023-09-08T04:08:47;98938.22;;;19.36;45.46
21433;BME280;18592;49.708;10.900;2023-09-08T04:10:47;98931.66;;;19.32;45.96
21433;BME280;18592;49.708;10.900;2023-09-08T04:12:48;98933.59;;;19.32;45.40
21433;BME280;18592;49.708;10.900;2023-09-08T04:14:48;98933.88;;;19.30;45.92
21433;BME280;18592;49.708;10.900;2023-09-08T04:16:49;98930.06;;;19.26;45.64
21433;BME280;18592;49.708;10.900;2023-09-08T04:18:49;98938.66;;;19.25;45.77
21433;BME280;18592;49.708;10.900;2023-09-08T04:20:50;98930.97;;;19.22;45.98
21433;BME280;18592;49.708;10.900;2023-09-08T04:22:50;98935.97;;;19.20;45.86
21433;BME280;18592;49.708;10.900;2023-09-08T04:24:51;98940.44;;;19.16;46.04
21433;BME280;18592;49.708;10.900;2023-09-08T04:26:53;98936.31;;;19.13;45.78
21433;BME280;18592;49.708;10.900;2023-09-08T04:28:53;98938.81;;;19.15;45.50
21433;BME280;18592;49.708;10.900;2023-09-08T04:30:54;98936.63;;;19.12;45.75
21433;BME280;18592;49.708;10.900;2023-09-08T04:32:54;98945.19;;;19.10;46.21
21433;BME280;18592;49.708;10.900;2023-09-08T04:34:54;98941.09;;;19.08;45.87
21433;BME280;18592;49.708;10.900;2023-09-08T04:36:55;98943.84;;;19.08;45.57
21433;BME280;18592;49.708;10.900;2023-09-08T04:38:56;98936.97;;;19.05;45.56
21433;BME280;18592;49.708;10.900;2023-09-08T04:40:56;98936.47;;;19.03;45.98
21433;BME280;18592;49.708;10.900;2023-09-08T04:42:56;98939.22;;;19.03;46.15
21433;BME280;18592;49.708;10.900;2023-09-08T04:44:57;98939.53;;;19.01;46.00
21433;BME280;18592;49.708;10.900;2023-09-08T04:46:57;98940.63;;;19.00;46.18
21433;BME280;18592;49.708;10.900;2023-09-08T04:48:59;98941.47;;;19.01;46.54
21433;BME280;18592;49.708;10.900;2023-09-08T04:51:00;98947.00;;;19.01;47.11
21433;BME280;18592;49.708;10.900;2023-09-08T04:53:02;98936.78;;;19.01;46.23
21433;BME280;18592;49.708;10.900;2023-09-08T04:55:03;98946.16;;;19.00;46.18
21433;BME280;18592;49.708;10.900;2023-09-08T04:57:04;98943.13;;;19.02;46.29
21433;BME280;18592;49.708;10.900;2023-09-08T04:59:04;98942.28;;;19.01;46.06
21433;BME280;18592;49.708;10.900;2023-09-08T05:01:05;98944.22;;;19.01;46.33
21433;BME280;18592;49.708;10.900;2023-09-08T05:03:05;98944.53;;;18.99;46.23
21433;BME280;18592;49.708;10.900;2023-09-08T05:05:21;98938.19;;;18.99;46.16
21433;BME280;18592;49.708;10.900;2023-09-08T05:07:21;98942.56;;;19.00;46.09
21433;BME280;18592;49.708;10.900;2023-09-08T05:09:22;98942.56;;;19.00;46.07
21433;BME280;18592;49.708;10.900;2023-09-08T05:11:23;98945.13;;;18.96;46.16
21433;BME280;18592;49.708;10.900;2023-09-08T05:13:25;98948.47;;;18.93;46.58
21433;BME280;18592;49.708;10.900;2023-09-08T05:15:27;98956.25;;;18.91;46.25
21433;BME280;18592;49.708;10.900;2023-09-08T05:17:29;98953.47;;;18.91;46.12
21433;BME280;18592;49.708;10.900;2023-09-08T05:19:30;98959.00;;;18.91;46.47
21433;BME280;18592;49.708;10.900;2023-09-08T05:21:32;98954.91;;;18.89;46.59
21433;BME280;18592;49.708;10.900;2023-09-08T05:23:33;98953.25;;;18.88;46.71
21433;BME280;18592;49.708;10.900;2023-09-08T05:25:49;98958.25;;;18.86;46.62
21433;BME280;18592;49.708;10.900;2023-09-08T05:27:51;98958.53;;;18.84;46.75
21433;BME280;18592;49.708;10.900;2023-09-08T05:29:51;98954.97;;;18.84;46.84
21433;BME280;18592;49.708;10.900;2023-09-08T05:31:51;98966.28;;;18.82;46.93
21433;BME280;18592;49.708;10.900;2023-09-08T05:33:53;98963.81;;;18.81;46.91
21433;BME280;18592;49.708;10.900;2023-09-08T05:35:53;98961.38;;;18.79;46.80
21433;BME280;18592;49.708;10.900;2023-09-08T05:37:53;98961.38;;;18.79;46.52
21433;BME280;18592;49.708;10.900;2023-09-08T05:39:54;98962.16;;;18.80;47.19
21433;BME280;18592;49.708;10.900;2023-09-08T05:41:55;98961.06;;;18.81;47.01
21433;BME280;18592;49.708;10.900;2023-09-08T05:43:56;98967.16;;;18.78;47.30
21433;BME280;18592;49.708;10.900;2023-09-08T05:45:56;98968.00;;;18.78;47.29
21433;BME280;18592;49.708;10.900;2023-09-08T05:47:56;98972.41;;;18.79;47.12
21433;BME280;18592;49.708;10.900;2023-09-08T05:49:57;98970.75;;;18.78;47.78
21433;BME280;18592;49.708;10.900;2023-09-08T05:51:58;98972.69;;;18.78;47.84
21433;BME280;18592;49.708;10.900;2023-09-08T05:53:58;98977.38;;;18.77;47.42
21433;BME280;18592;49.708;10.900;2023-09-08T05:56:01;98974.63;;;18.77;47.80
21433;BME280;18592;49.708;10.900;2023-09-08T05:58:02;98974.03;;;18.80;48.14
21433;BME280;18592;49.708;10.900;2023-09-08T06:00:18;98980.41;;;18.81;48.29
21433;BME280;18592;49.708;10.900;2023-09-08T06:02:22;98976.53;;;18.82;48.30
21433;BME280;18592;49.708;10.900;2023-09-08T06:04:23;98973.78;;;18.82;48.46
21433;BME280;18592;49.708;10.900;2023-09-08T06:06:23;98961.31;;;18.84;48.66
21433;BME280;18592;49.708;10.900;2023-09-08T06:08:26;98975.34;;;18.88;48.90
21433;BME280;18592;49.708;10.900;2023-09-08T06:10:26;98969.75;;;18.93;49.23
21433;BME280;18592;49.708;10.900;2023-09-08T06:12:27;98969.16;;;18.96;48.90
21433;BME280;18592;49.708;10.900;2023-09-08T06:14:28;98970.75;;;19.02;48.66
21433;BME280;18592;49.708;10.900;2023-09-08T06:16:28;98973.97;;;19.09;48.69
21433;BME280;18592;49.708;10.900;2023-09-08T06:18:34;98977.19;;;19.16;48.96
21433;BME280;18592;49.708;10.900;2023-09-08T06:20:45;98971.28;;;19.23;48.56
21433;BME280;18592;49.708;10.900;2023-09-08T06:22:48;98971.22;;;19.28;48.91
21433;BME280;18592;49.708;10.900;2023-09-08T06:24:50;98979.44;;;19.38;48.82
21433;BME280;18592;49.708;10.900;2023-09-08T06:26:52;98973.75;;;19.48;48.94
21433;BME280;18592;49.708;10.900;2023-09-08T06:28:53;98970.00;;;19.57;49.02
21433;BME280;18592;49.708;10.900;2023-09-08T06:30:58;98970.13;;;19.66;48.60
21433;BME280;18592;49.708;10.900;2023-09-08T06:33:00;98972.97;;;19.80;48.81
21433;BME280;18592;49.708;10.900;2023-09-08T06:35:03;98978.59;;;19.93;48.85
21433;BME280;18592;49.708;10.900;2023-09-08T06:37:05;98976.34;;;20.09;49.33
21433;BME280;18592;49.708;10.900;2023-09-08T06:39:06;98976.41;;;20.22;49.04
21433;BME280;18592;49.708;10.900;2023-09-08T06:41:09;98985.00;;;20.40;49.31
21433;BME280;18592;49.708;10.900;2023-09-08T06:43:12;98977.53;;;20.54;49.23
21433;BME280;18592;49.708;10.900;2023-09-08T06:45:25;98967.78;;;20.70;48.87
21433;BME280;18592;49.708;10.900;2023-09-08T06:47:29;98969.47;;;20.84;48.93
21433;BME280;18592;49.708;10.900;2023-09-08T06:49:29;98971.72;;;20.96;48.91
21433;BME280;18592;49.708;10.900;2023-09-08T06:51:31;98972.03;;;21.08;49.04
21433;BME280;18592;49.708;10.900;2023-09-08T06:53:36;98977.06;;;21.20;48.73
21433;BME280;18592;49.708;10.900;2023-09-08T06:55:38;98976.84;;;21.30;48.78
21433;BME280;18592;49.708;10.900;2023-09-08T06:57:44;98977.13;;;21.42;48.52
21433;BME280;18592;49.708;10.900;2023-09-08T06:59:46;98974.13;;;21.52;48.50
21433;BME280;18592;49.708;10.900;2023-09-08T07:01:51;98980.44;;;21.66;48.73
21433;BME280;18592;49.708;10.900;2023-09-08T07:03:54;98984.63;;;21.77;48.63
21433;BME280;18592;49.708;10.900;2023-09-08T07:06:01;98973.81;;;21.89;48.21
21433;BME280;18592;49.708;10.900;2023-09-08T07:08:03;98979.13;;;21.99;48.26
21433;BME280;18592;49.708;10.900;2023-09-08T07:10:05;98979.38;;;22.11;48.26
21433;BME280;18592;49.708;10.900;2023-09-08T07:12:07;98983.88;;;22.21;48.33
21433;BME280;18592;49.708;10.900;2023-09-08T07:14:15;98992.09;;;22.35;48.12
21433;BME280;18592;49.708;10.900;2023-09-08T07:16:17;98984.66;;;22.44;47.86
21433;BME280;18592;49.708;10.900;2023-09-08T07:18:23;98985.19;;;22.54;47.88
21433;BME280;18592;49.708;10.900;2023-09-08T07:20:25;98977.44;;;22.65;47.82
21433;BME280;18592;49.708;10.900;2023-09-08T07:22:27;98981.59;;;22.76;47.69
21433;BME280;18592;49.708;10.900;2023-09-08T07:24:28;98973.25;;;22.85;47.68
21433;BME280;18592;49.708;10.900;2023-09-08T07:26:30;98979.34;;;22.95;47.48
21433;BME280;18592;49.708;10.900;2023-09-08T07:28:32;98979.06;;;23.05;47.56
21433;BME280;18592;49.708;10.900;2023-09-08T07:30:38;98980.41;;;23.16;47.25
21433;BME280;18592;49.708;10.900;2023-09-08T07:32:40;98979.28;;;23.26;47.21
21433;BME280;18592;49.708;10.900;2023-09-08T07:34:41;98973.75;;;23.34;47.13
21433;BME280;18592;49.708;10.900;2023-09-08T07:36:43;98975.09;;;23.46;46.98
21433;BME280;18592;49.708;10.900;2023-09-08T07:38:45;98981.53;;;23.55;46.87
21433;BME280;18592;49.708;10.900;2023-09-08T07:40:47;98976.13;;;23.67;46.84
21433;BME280;18592;49.708;10.900;2023-09-08T07:42:48;98976.94;;;23.76;46.73
21433;BME280;18592;49.708;10.900;2023-09-08T07:44:50;98974.34;;;23.88;46.81
21433;BME280;18592;49.708;10.900;2023-09-08T07:46:57;98969.75;;;24.00;46.82
21433;BME280;18592;49.708;10.900;2023-09-08T07:48:59;98969.09;;;24.12;47.03
21433;BME280;18592;49.708;10.900;2023-09-08T07:51:01;98966.94;;;24.26;46.61
21433;BME280;18592;49.708;10.900;2023-09-08T07:53:02;98970.66;;;24.39;46.80
21433;BME280;18592;49.708;10.900;2023-09-08T07:55:04;98978.03;;;24.52;46.74
21433;BME280;18592;49.708;10.900;2023-09-08T07:57:06;98971.44;;;24.65;46.65
21433;BME280;18592;49.708;10.900;2023-09-08T07:59:36;98966.63;;;24.83;46.79
21433;BME280;18592;49.708;10.900;2023-09-08T08:01:51;98966.91;;;24.98;47.06
21433;BME280;18592;49.708;10.900;2023-09-08T08:04:00;98966.69;;;25.12;46.89
21433;BME280;18592;49.708;10.900;2023-09-08T08:06:04;98968.88;;;25.27;47.09
21433;BME280;18592;49.708;10.900;2023-09-08T08:08:08;98968.63;;;25.41;46.79
21433;BME280;18592;49.708;10.900;2023-09-08T08:10:12;98966.91;;;25.57;47.15
21433;BME280;18592;49.708;10.900;2023-09-08T08:12:13;98961.84;;;25.71;46.92
21433;BME280;18592;49.708;10.900;2023-09-08T08:14:15;98966.50;;;25.88;47.43
21433;BME280;18592;49.708;10.900;2023-09-08T08:16:17;98961.44;;;26.02;47.48
21433;BME280;18592;49.708;10.900;2023-09-08T08:18:18;98963.97;;;26.15;47.26
21433;BME280;18592;49.708;10.900;2023-09-08T08:20:37;98970.22;;;26.33;47.13
21433;BME280;18592;49.708;10.900;2023-09-08T08:22:39;98973.50;;;26.47;47.20
21433;BME280;18592;49.708;10.900;2023-09-08T08:24:40;98969.59;;;26.60;46.90
21433;BME280;18592;49.708;10.900;2023-09-08T08:26:42;98969.28;;;26.74;46.48
21433;BME280;18592;49.708;10.900;2023-09-08T08:28:51;98959.41;;;26.88;46.89
21433;BME280;18592;49.708;10.900;2023-09-08T08:30:52;98967.81;;;27.00;46.63
21433;BME280;18592;49.708;10.900;2023-09-08T08:32:54;98960.69;;;27.15;46.32
21433;BME280;18592;49.708;10.900;2023-09-08T08:34:56;98962.31;;;27.28;46.02
21433;BME280;18592;49.708;10.900;2023-09-08T08:37:07;98960.34;;;27.41;46.41
21433;BME280;18592;49.708;10.900;2023-09-08T08:39:08;98961.97;;;27.54;45.84
21433;BME280;18592;49.708;10.900;2023-09-08T08:41:10;98956.78;;;27.68;46.21
21433;BME280;18592;49.708;10.900;2023-09-08T08:43:12;98957.25;;;27.82;45.94
21433;BME280;18592;49.708;10.900;2023-09-08T08:45:16;98956.03;;;27.95;45.84
21433;BME280;18592;49.708;10.900;2023-09-08T08:47:20;98958.13;;;28.10;45.83
21433;BME280;18592;49.708;10.900;2023-09-08T08:49:22;98955.31;;;28.26;45.82
21433;BME280;18592;49.708;10.900;2023-09-08T08:51:24;98949.31;;;28.40;45.68
21433;BME280;18592;49.708;10.900;2023-09-08T08:53:27;98955.31;;;28.54;45.42
21433;BME280;18592;49.708;10.900;2023-09-08T08:55:29;98948.47;;;28.67;45.22
21433;BME280;18592;49.708;10.900;2023-09-08T08:57:32;98949.69;;;28.81;44.91
21433;BME280;18592;49.708;10.900;2023-09-08T08:59:33;98944.78;;;28.94;45.01
21433;BME280;18592;49.708;10.900;2023-09-08T09:01:36;98940.69;;;29.07;44.97
21433;BME280;18592;49.708;10.900;2023-09-08T09:03:39;98938.25;;;29.21;44.91
21433;BME280;18592;49.708;10.900;2023-09-08T09:05:42;98948.66;;;29.36;44.84
21433;BME280;18592;49.708;10.900;2023-09-08T09:07:50;98943.78;;;29.52;44.85
21433;BME280;18592;49.708;10.900;2023-09-08T09:09:51;98942.13;;;29.67;44.67
21433;BME280;18592;49.708;10.900;2023-09-08T09:11:53;98928.41;;;29.81;44.53
21433;BME280;18592;49.708;10.900;2023-09-08T09:13:55;98932.72;;;29.94;44.33
21433;BME280;18592;49.708;10.900;2023-09-08T09:15:59;98926.19;;;30.09;44.39
21433;BME280;18592;49.708;10.900;2023-09-08T09:18:05;98922.88;;;30.23;43.73
21433;BME280;18592;49.708;10.900;2023-09-08T09:20:13;98932.78;;;30.36;43.66
21433;BME280;18592;49.708;10.900;2023-09-08T09:22:20;98933.88;;;30.51;43.83
21433;BME280;18592;49.708;10.900;2023-09-08T09:24:34;98934.94;;;30.65;43.68
21433;BME280;18592;49.708;10.900;2023-09-08T09:26:41;98928.38;;;30.80;43.27
21433;BME280;18592;49.708;10.900;2023-09-08T09:28:47;98928.22;;;30.93;43.32
21433;BME280;18592;49.708;10.900;2023-09-08T09:30:52;98918.38;;;31.06;42.46
21433;BME280;18592;49.708;10.900;2023-09-08T09:33:02;98926.69;;;31.21;43.22
21433;BME280;18592;49.708;10.900;2023-09-08T09:35:05;98912.78;;;31.35;42.55
21433;BME280;18592;49.708;10.900;2023-09-08T09:37:06;98922.28;;;31.50;42.62
21433;BME280;18592;49.708;10.900;2023-09-08T09:39:08;98915.25;;;31.63;42.60
21433;BME280;18592;49.708;10.900;2023-09-08T09:41:10;98920.63;;;31.75;42.32
21433;BME280;18592;49.708;10.900;2023-09-08T09:43:13;98914.78;;;31.87;42.46
21433;BME280;18592;49.708;10.900;2023-09-08T09:45:15;98915.72;;;31.98;42.08
21433;BME280;18592;49.708;10.900;2023-09-08T09:47:17;98911.47;;;32.12;42.08
21433;BME280;18592;49.708;10.900;2023-09-08T09:49:20;98912.81;;;32.25;42.10
21433;BME280;18592;49.708;10.900;2023-09-08T09:51:22;98920.66;;;32.38;41.96
21433;BME280;18592;49.708;10.900;2023-09-08T09:53:23;98914.34;;;32.52;41.68
21433;BME280;18592;49.708;10.900;2023-09-08T09:55:26;98913.69;;;32.66;41.91
21433;BME280;18592;49.708;10.900;2023-09-08T09:57:29;98908.56;;;32.78;41.09
21433;BME280;18592;49.708;10.900;2023-09-08T09:59:31;98911.50;;;32.89;40.95
21433;BME280;18592;49.708;10.900;2023-09-08T10:01:33;98919.66;;;33.01;40.74
21433;BME280;18592;49.708;10.900;2023-09-08T10:03:35;98919.78;;;33.11;40.14
21433;BME280;18592;49.708;10.900;2023-09-08T10:05:37;98914.19;;;33.22;40.05
21433;BME280;18592;49.708;10.900;2023-09-08T10:07:39;98907.00;;;33.35;40.35
21433;BME280;18592;49.708;10.900;2023-09-08T10:09:42;98902.63;;;33.45;40.35
21433;BME280;18592;49.708;10.900;2023-09-08T10:11:50;98901.09;;;33.54;39.77
21433;BME280;18592;49.708;10.900;2023-09-08T10:13:55;98893.50;;;33.65;39.72
21433;BME280;18592;49.708;10.900;2023-09-08T10:16:02;98901.22;;;33.75;39.89
21433;BME280;18592;49.708;10.900;2023-09-08T10:18:06;98895.19;;;33.84;39.42
21433;BME280;18592;49.708;10.900;2023-09-08T10:20:19;98896.06;;;33.95;39.34
21433;BME280;18592;49.708;10.900;2023-09-08T10:22:23;98886.00;;;34.05;38.89
21433;BME280;18592;49.708;10.900;2023-09-08T10:24:34;98890.50;;;34.13;38.21
21433;BME280;18592;49.708;10.900;2023-09-08T10:26:44;98887.69;;;34.23;38.68
21433;BME280;18592;49.708;10.900;2023-09-08T10:28:48;98879.22;;;34.30;38.58
21433;BME280;18592;49.708;10.900;2023-09-08T10:30:52;98882.47;;;34.39;38.54
21433;BME280;18592;49.708;10.900;2023-09-08T10:33:06;98869.53;;;34.49;38.31
21433;BME280;18592;49.708;10.900;2023-09-08T10:35:08;98879.28;;;34.59;38.07
21433;BME280;18592;49.708;10.900;2023-09-08T10:37:24;98880.91;;;34.67;37.79
21433;BME280;18592;49.708;10.900;2023-09-08T10:39:34;98882.53;;;34.75;37.32
21433;BME280;18592;49.708;10.900;2023-09-08T10:41:42;98869.19;;;34.82;37.05
21433;BME280;18592;49.708;10.900;2023-09-08T10:44:07;98881.75;;;34.88;36.81
21433;BME280;18592;49.708;10.900;2023-09-08T10:46:09;98874.06;;;34.96;36.91